sensor_id;sensor_type;location;lat;lon;timestamp;P1;durP1;ratioP1;P2;durP2;ratioP2
84140;SDS011;74257;52.540;13.416;2024-02-14T00:01:08;4.25;;;1.98;;
84140;SDS011;74257;52.540;13.416;2024-02-14T00:03:39;3.72;;;1.92;;
84140;SDS011;74257;52.540;13.416;2024-02-14T00:06:05;8.02;;;2.15;;
84140;SDS011;74257;52.540;13.416;2024-02-14T00:08:31;4.07;;;1.80;;
84140;SDS011;74257;52.540;13.416;2024-02-14T00:10:57;3.53;;;2.00;;
84140;SDS011;74257;52.540;13.416;2024-02-14T00:13:23;4.15;;;1.88;;
84140;SDS011;74257;52.540;13.416;2024-02-14T00:15:49;4.53;;;2.05;;
84140;SDS011;74257;52.540;13.416;2024-02-14T00:18:16;6.05;;;1.70;;
84140;SDS011;74257;52.540;13.416;2024-02-14T00:20:42;3.60;;;1.83;;
84140;SDS011;74257;52.540;13.416;2024-02-14T00:23:07;3.35;;;1.88;;
84140;SDS011;74257;52.540;13.416;2024-02-14T00:25:33;4.30;;;1.85;;
84140;SDS011;74257;52.540;13.416;2024-02-14T00:27:59;4.53;;;1.90;;
84140;SDS011;74257;52.540;13.416;2024-02-14T00:30:26;6.15;;;2.03;;
84140;SDS011;74257;52.540;13.416;2024-02-14T00:32:52;3.20;;;1.88;;
84140;SDS011;74257;52.540;13.416;2024-02-14T00:35:17;4.05;;;1.80;;
84140;SDS011;74257;52.540;13.416;2024-02-14T00:37:43;3.03;;;1.88;;
84140;SDS011;74257;52.540;13.416;2024-02-14T00:40:09;3.55;;;1.77;;
84140;SDS011;74257;52.540;13.416;2024-02-14T00:42:36;3.38;;;1.65;;
84140;SDS011;74257;52.540;13.416;2024-02-14T00:45:02;4.28;;;1.85;;
84140;SDS011;74257;52.540;13.416;2024-02-14T00:47:28;4.18;;;2.00;;
84140;SDS011;74257;52.540;13.416;2024-02-14T00:49:54;4.55;;;1.88;;
84140;SDS011;74257;52.540;13.416;2024-02-14T00:52:20;2.92;;;1.60;;
84140;SDS011;74257;52.540;13.416;2024-02-14T00:54:46;4.28;;;1.90;;
84140;SDS011;74257;52.540;13.416;2024-02-14T00:57:13;4.22;;;2.25;;
84140;SDS011;74257;52.540;13.416;2024-02-14T00:59:38;4.78;;;1.73;;
84140;SDS011;74257;52.540;13.416;2024-02-14T01:02:04;4.75;;;2.03;;
84140;SDS011;74257;52.540;13.416;2024-02-14T01:04:30;5.07;;;2.10;;
84140;SDS011;74257;52.540;13.416;2024-02-14T01:06:56;3.90;;;1.70;;
84140;SDS011;74257;52.540;13.416;2024-02-14T01:09:21;7.10;;;2.40;;
84140;SDS011;74257;52.540;13.416;2024-02-14T01:11:47;3.15;;;1.65;;
84140;SDS011;74257;52.540;13.416;2024-02-14T01:14:14;2.70;;;1.90;;
84140;SDS011;74257;52.540;13.416;2024-02-14T01:16:43;3.00;;;1.70;;
84140;SDS011;74257;52.540;13.416;2024-02-14T01:19:10;3.83;;;2.00;;
84140;SDS011;74257;52.540;13.416;2024-02-14T01:21:36;3.13;;;1.88;;
84140;SDS011;74257;52.540;13.416;2024-02-14T01:24:02;5.65;;;2.25;;
84140;SDS011;74257;52.540;13.416;2024-02-14T01:26:30;3.03;;;1.70;;
84140;SDS011;74257;52.540;13.416;2024-02-14T01:28:57;3.50;;;1.92;;
84140;SDS011;74257;52.540;13.416;2024-02-14T01:31:26;3.47;;;2.03;;
84140;SDS011;74257;52.540;13.416;2024-02-14T01:33:52;3.58;;;1.70;;
84140;SDS011;74257;52.540;13.416;2024-02-14T01:36:18;3.85;;;1.80;;
84140;SDS011;74257;52.540;13.416;2024-02-14T01:38:44;3.08;;;1.60;;
84140;SDS011;74257;52.540;13.416;2024-02-14T01:41:10;5.93;;;1.80;;
84140;SDS011;74257;52.540;13.416;2024-02-14T01:43:36;3.25;;;2.00;;
84140;SDS011;74257;52.540;13.416;2024-02-14T01:46:06;2.60;;;1.70;;
84140;SDS011;74257;52.540;13.416;2024-02-14T01:48:35;2.88;;;1.75;;
84140;SDS011;74257;52.540;13.416;2024-02-14T01:51:02;3.13;;;1.90;;
84140;SDS011;74257;52.540;13.416;2024-02-14T01:53:29;3.33;;;1.95;;
84140;SDS011;74257;52.540;13.416;2024-02-14T01:55:56;4.53;;;2.03;;
84140;SDS011;74257;52.540;13.416;2024-02-14T01:58:24;2.80;;;1.70;;
84140;SDS011;74257;52.540;13.416;2024-02-14T02:00:51;3.50;;;2.00;;
84140;SDS011;74257;52.540;13.416;2024-02-14T02:03:25;2.95;;;1.65;;
84140;SDS011;74257;52.540;13.416;2024-02-14T02:05:52;5.10;;;1.92;;
84140;SDS011;74257;52.540;13.416;2024-02-14T02:08:19;2.80;;;1.95;;
84140;SDS011;74257;52.540;13.416;2024-02-14T02:10:45;3.30;;;1.80;;
84140;SDS011;74257;52.540;13.416;2024-02-14T02:13:10;2.85;;;1.70;;
84140;SDS011;74257;52.540;13.416;2024-02-14T02:15:36;4.13;;;2.00;;
84140;SDS011;74257;52.540;13.416;2024-02-14T02:18:03;4.85;;;1.95;;
84140;SDS011;74257;52.540;13.416;2024-02-14T02:20:31;3.30;;;1.90;;
84140;SDS011;74257;52.540;13.416;2024-02-14T02:22:58;3.85;;;1.70;;
84140;SDS011;74257;52.540;13.416;2024-02-14T02:25:25;3.45;;;1.67;;
84140;SDS011;74257;52.540;13.416;2024-02-14T02:27:54;2.83;;;1.90;;
84140;SDS011;74257;52.540;13.416;2024-02-14T02:30:22;3.25;;;1.63;;
84140;SDS011;74257;52.540;13.416;2024-02-14T02:32:47;4.05;;;1.65;;
84140;SDS011;74257;52.540;13.416;2024-02-14T02:35:15;3.40;;;1.73;;
84140;SDS011;74257;52.540;13.416;2024-02-14T02:37:41;4.53;;;1.75;;
84140;SDS011;74257;52.540;13.416;2024-02-14T02:40:08;3.13;;;1.60;;
84140;SDS011;74257;52.540;13.416;2024-02-14T02:42:35;2.63;;;1.60;;
84140;SDS011;74257;52.540;13.416;2024-02-14T02:45:01;3.95;;;1.80;;
84140;SDS011;74257;52.540;13.416;2024-02-14T02:47:30;2.45;;;1.70;;
84140;SDS011;74257;52.540;13.416;2024-02-14T02:49:59;3.30;;;1.80;;
84140;SDS011;74257;52.540;13.416;2024-02-14T02:52:29;3.67;;;1.67;;
84140;SDS011;74257;52.540;13.416;2024-02-14T02:54:56;3.25;;;1.65;;
84140;SDS011;74257;52.540;13.416;2024-02-14T02:57:22;3.45;;;1.77;;
84140;SDS011;74257;52.540;13.416;2024-02-14T02:59:48;4.13;;;1.80;;
84140;SDS011;74257;52.540;13.416;2024-02-14T03:02:17;3.35;;;1.83;;
84140;SDS011;74257;52.540;13.416;2024-02-14T03:04:44;2.67;;;1.70;;
84140;SDS011;74257;52.540;13.416;2024-02-14T03:07:10;2.65;;;1.50;;
84140;SDS011;74257;52.540;13.416;2024-02-14T03:09:36;3.63;;;1.92;;
84140;SDS011;74257;52.540;13.416;2024-02-14T03:12:02;4.68;;;1.70;;
84140;SDS011;74257;52.540;13.416;2024-02-14T03:14:31;3.60;;;1.60;;
84140;SDS011;74257;52.540;13.416;2024-02-14T03:16:59;2.90;;;1.75;;
84140;SDS011;74257;52.540;13.416;2024-02-14T03:19:28;3.85;;;1.90;;
84140;SDS011;74257;52.540;13.416;2024-02-14T03:21:54;3.72;;;1.70;;
84140;SDS011;74257;52.540;13.416;2024-02-14T03:24:20;2.70;;;1.83;;
84140;SDS011;74257;52.540;13.416;2024-02-14T03:26:46;3.88;;;1.60;;
84140;SDS011;74257;52.540;13.416;2024-02-14T03:29:12;3.53;;;1.80;;
84140;SDS011;74257;52.540;13.416;2024-02-14T03:31:38;5.85;;;2.05;;
84140;SDS011;74257;52.540;13.416;2024-02-14T03:34:04;3.03;;;1.42;;
84140;SDS011;74257;52.540;13.416;2024-02-14T03:36:30;3.95;;;1.85;;
84140;SDS011;74257;52.540;13.416;2024-02-14T03:38:58;3.65;;;1.95;;
84140;SDS011;74257;52.540;13.416;2024-02-14T03:41:24;4.28;;;1.60;;
84140;SDS011;74257;52.540;13.416;2024-02-14T03:43:50;2.70;;;1.70;;
84140;SDS011;74257;52.540;13.416;2024-02-14T03:46:18;2.90;;;1.70;;
84140;SDS011;74257;52.540;13.416;2024-02-14T03:48:46;3.50;;;1.70;;
84140;SDS011;74257;52.540;13.416;2024-02-14T03:51:13;3.35;;;1.75;;
84140;SDS011;74257;52.540;13.416;2024-02-14T03:53:39;3.47;;;2.15;;
84140;SDS011;74257;52.540;13.416;2024-02-14T03:56:05;3.97;;;1.95;;
84140;SDS011;74257;52.540;13.416;2024-02-14T03:58:32;2.58;;;1.70;;
84140;SDS011;74257;52.540;13.416;2024-02-14T04:01:02;2.55;;;1.65;;
84140;SDS011;74257;52.540;13.416;2024-02-14T04:03:29;2.83;;;1.75;;
84140;SDS011;74257;52.540;13.416;2024-02-14T04:05:55;3.28;;;1.70;;
84140;SDS011;74257;52.540;13.416;2024-02-14T04:08:21;3.30;;;1.67;;
84140;SDS011;74257;52.540;13.416;2024-02-14T04:10:47;2.67;;;1.70;;
84140;SDS011;74257;52.540;13.416;2024-02-14T04:13:16;2.25;;;1.50;;
84140;SDS011;74257;52.540;13.416;2024-02-14T04:15:42;2.35;;;1.60;;
84140;SDS011;74257;52.540;13.416;2024-02-14T04:18:08;2.58;;;1.75;;
84140;SDS011;74257;52.540;13.416;2024-02-14T04:20:34;4.10;;;1.77;;
84140;SDS011;74257;52.540;13.416;2024-02-14T04:23:00;3.00;;;1.50;;
84140;SDS011;74257;52.540;13.416;2024-02-14T04:25:26;3.13;;;1.73;;
84140;SDS011;74257;52.540;13.416;2024-02-14T04:27:52;3.00;;;1.70;;
84140;SDS011;74257;52.540;13.416;2024-02-14T04:30:17;3.92;;;1.90;;
84140;SDS011;74257;52.540;13.416;2024-02-14T04:32:43;3.92;;;1.60;;
84140;SDS011;74257;52.540;13.416;2024-02-14T04:35:09;3.40;;;1.80;;
84140;SDS011;74257;52.540;13.416;2024-02-14T04:37:35;3.92;;;2.22;;
84140;SDS011;74257;52.540;13.416;2024-02-14T04:40:01;2.97;;;1.80;;
84140;SDS011;74257;52.540;13.416;2024-02-14T04:42:29;2.72;;;1.55;;
84140;SDS011;74257;52.540;13.416;2024-02-14T04:44:55;3.30;;;1.80;;
84140;SDS011;74257;52.540;13.416;2024-02-14T04:47:21;2.63;;;1.70;;
84140;SDS011;74257;52.540;13.416;2024-02-14T04:49:47;3.53;;;1.85;;
84140;SDS011;74257;52.540;13.416;2024-02-14T04:52:13;2.63;;;1.73;;
84140;SDS011;74257;52.540;13.416;2024-02-14T04:54:38;2.90;;;1.73;;
84140;SDS011;74257;52.540;13.416;2024-02-14T04:57:04;3.42;;;1.65;;
84140;SDS011;74257;52.540;13.416;2024-02-14T04:59:30;2.85;;;1.80;;
84140;SDS011;74257;52.540;13.416;2024-02-14T05:01:56;3.22;;;1.70;;
84140;SDS011;74257;52.540;13.416;2024-02-14T05:04:22;4.10;;;1.90;;
84140;SDS011;74257;52.540;13.416;2024-02-14T05:06:48;2.28;;;1.67;;
84140;SDS011;74257;52.540;13.416;2024-02-14T05:09:14;2.00;;;1.60;;
84140;SDS011;74257;52.540;13.416;2024-02-14T05:11:41;2.72;;;1.75;;
84140;SDS011;74257;52.540;13.416;2024-02-14T05:14:07;2.90;;;1.67;;
84140;SDS011;74257;52.540;13.416;2024-02-14T05:16:33;2.92;;;1.73;;
84140;SDS011;74257;52.540;13.416;2024-02-14T05:18:58;4.35;;;1.75;;
84140;SDS011;74257;52.540;13.416;2024-02-14T05:21:26;3.35;;;1.70;;
84140;SDS011;74257;52.540;13.416;2024-02-14T05:23:52;3.05;;;1.70;;
84140;SDS011;74257;52.540;13.416;2024-02-14T05:26:18;3.25;;;1.77;;
84140;SDS011;74257;52.540;13.416;2024-02-14T05:28:44;4.20;;;2.08;;
84140;SDS011;74257;52.540;13.416;2024-02-14T05:31:10;2.60;;;1.63;;
84140;SDS011;74257;52.540;13.416;2024-02-14T05:33:35;3.03;;;1.63;;
84140;SDS011;74257;52.540;13.416;2024-02-14T05:36:01;3.28;;;1.60;;
84140;SDS011;74257;52.540;13.416;2024-02-14T05:38:27;3.08;;;1.60;;
84140;SDS011;74257;52.540;13.416;2024-02-14T05:40:55;2.55;;;1.60;;
84140;SDS011;74257;52.540;13.416;2024-02-14T05:43:20;2.33;;;1.50;;
84140;SDS011;74257;52.540;13.416;2024-02-14T05:45:47;3.13;;;1.60;;
84140;SDS011;74257;52.540;13.416;2024-02-14T05:48:13;2.75;;;1.70;;
84140;SDS011;74257;52.540;13.416;2024-02-14T05:50:40;2.53;;;1.60;;
84140;SDS011;74257;52.540;13.416;2024-02-14T05:53:05;2.20;;;1.50;;
84140;SDS011;74257;52.540;13.416;2024-02-14T05:55:31;3.70;;;1.60;;
84140;SDS011;74257;52.540;13.416;2024-02-14T05:57:57;3.22;;;1.70;;
84140;SDS011;74257;52.540;13.416;2024-02-14T06:00:24;3.22;;;1.60;;
84140;SDS011;74257;52.540;13.416;2024-02-14T06:02:50;3.00;;;1.70;;
84140;SDS011;74257;52.540;13.416;2024-02-14T06:05:16;4.22;;;1.70;;
84140;SDS011;74257;52.540;13.416;2024-02-14T06:07:42;2.47;;;1.55;;
84140;SDS011;74257;52.540;13.416;2024-02-14T06:10:10;3.45;;;1.70;;
84140;SDS011;74257;52.540;13.416;2024-02-14T06:12:36;5.28;;;2.05;;
84140;SDS011;74257;52.540;13.416;2024-02-14T06:15:02;5.60;;;2.00;;
84140;SDS011;74257;52.540;13.416;2024-02-14T06:17:28;3.03;;;1.90;;
84140;SDS011;74257;52.540;13.416;2024-02-14T06:19:54;5.40;;;2.75;;
84140;SDS011;74257;52.540;13.416;2024-02-14T06:22:20;3.05;;;1.70;;
84140;SDS011;74257;52.540;13.416;2024-02-14T06:24:47;4.88;;;1.80;;
84140;SDS011;74257;52.540;13.416;2024-02-14T06:27:13;2.50;;;1.60;;
84140;SDS011;74257;52.540;13.416;2024-02-14T06:29:43;3.20;;;1.75;;
84140;SDS011;74257;52.540;13.416;2024-02-14T06:32:08;9.48;;;2.03;;
84140;SDS011;74257;52.540;13.416;2024-02-14T06:34:37;5.10;;;1.88;;
84140;SDS011;74257;52.540;13.416;2024-02-14T06:37:03;8.75;;;1.85;;
84140;SDS011;74257;52.540;13.416;2024-02-14T06:39:29;5.13;;;1.90;;
84140;SDS011;74257;52.540;13.416;2024-02-14T06:41:55;4.57;;;2.13;;
84140;SDS011;74257;52.540;13.416;2024-02-14T06:44:23;6.78;;;2.20;;
84140;SDS011;74257;52.540;13.416;2024-02-14T06:46:49;10.30;;;2.63;;
84140;SDS011;74257;52.540;13.416;2024-02-14T06:49:17;5.70;;;2.00;;
84140;SDS011;74257;52.540;13.416;2024-02-14T06:51:43;8.23;;;2.28;;
84140;SDS011;74257;52.540;13.416;2024-02-14T06:54:10;5.47;;;2.20;;
84140;SDS011;74257;52.540;13.416;2024-02-14T06:56:37;5.25;;;2.40;;
84140;SDS011;74257;52.540;13.416;2024-02-14T06:59:03;8.93;;;3.00;;
84140;SDS011;74257;52.540;13.416;2024-02-14T07:01:29;10.98;;;3.08;;
84140;SDS011;74257;52.540;13.416;2024-02-14T07:03:56;8.60;;;2.60;;
84140;SDS011;74257;52.540;13.416;2024-02-14T07:06:21;8.07;;;3.03;;
84140;SDS011;74257;52.540;13.416;2024-02-14T07:08:48;6.47;;;3.08;;
84140;SDS011;74257;52.540;13.416;2024-02-14T07:11:14;11.40;;;3.13;;
84140;SDS011;74257;52.540;13.416;2024-02-14T07:13:41;5.60;;;2.42;;
84140;SDS011;74257;52.540;13.416;2024-02-14T07:16:07;6.93;;;2.90;;
84140;SDS011;74257;52.540;13.416;2024-02-14T07:18:33;5.70;;;2.50;;
84140;SDS011;74257;52.540;13.416;2024-02-14T07:20:59;7.32;;;2.30;;
84140;SDS011;74257;52.540;13.416;2024-02-14T07:23:25;8.88;;;2.80;;
84140;SDS011;74257;52.540;13.416;2024-02-14T07:25:51;8.55;;;2.30;;
84140;SDS011;74257;52.540;13.416;2024-02-14T07:28:17;6.68;;;2.50;;
84140;SDS011;74257;52.540;13.416;2024-02-14T07:30:43;6.05;;;2.63;;
84140;SDS011;74257;52.540;13.416;2024-02-14T07:33:09;11.35;;;2.83;;
84140;SDS011;74257;52.540;13.416;2024-02-14T07:35:36;12.70;;;2.78;;
84140;SDS011;74257;52.540;13.416;2024-02-14T07:38:02;11.15;;;3.60;;
84140;SDS011;74257;52.540;13.416;2024-02-14T07:40:28;10.95;;;2.97;;
84140;SDS011;74257;52.540;13.416;2024-02-14T07:42:56;5.45;;;2.88;;
84140;SDS011;74257;52.540;13.416;2024-02-14T07:45:22;13.63;;;3.13;;
84140;SDS011;74257;52.540;13.416;2024-02-14T07:47:51;10.15;;;3.55;;
84140;SDS011;74257;52.540;13.416;2024-02-14T07:52:43;9.05;;;3.13;;
84140;SDS011;74257;52.540;13.416;2024-02-14T07:55:10;9.88;;;2.85;;
84140;SDS011;74257;52.540;13.416;2024-02-14T07:57:38;8.82;;;3.20;;
84140;SDS011;74257;52.540;13.416;2024-02-14T08:00:07;9.70;;;3.10;;
84140;SDS011;74257;52.540;13.416;2024-02-14T08:02:34;12.60;;;3.50;;
84140;SDS011;74257;52.540;13.416;2024-02-14T08:05:00;14.07;;;3.38;;
84140;SDS011;74257;52.540;13.416;2024-02-14T08:07:26;15.55;;;3.83;;
84140;SDS011;74257;52.540;13.416;2024-02-14T08:09:52;9.95;;;3.33;;
84140;SDS011;74257;52.540;13.416;2024-02-14T08:12:19;9.13;;;3.20;;
84140;SDS011;74257;52.540;13.416;2024-02-14T08:14:46;20.48;;;3.40;;
84140;SDS011;74257;52.540;13.416;2024-02-14T08:17:12;12.43;;;3.55;;
84140;SDS011;74257;52.540;13.416;2024-02-14T08:19:38;10.38;;;3.35;;
84140;SDS011;74257;52.540;13.416;2024-02-14T08:22:05;11.45;;;3.63;;
84140;SDS011;74257;52.540;13.416;2024-02-14T08:24:32;12.77;;;3.50;;
84140;SDS011;74257;52.540;13.416;2024-02-14T08:26:58;17.30;;;3.75;;
84140;SDS011;74257;52.540;13.416;2024-02-14T08:29:23;18.13;;;3.92;;
84140;SDS011;74257;52.540;13.416;2024-02-14T08:31:49;11.60;;;3.47;;
84140;SDS011;74257;52.540;13.416;2024-02-14T08:34:15;11.43;;;3.45;;
84140;SDS011;74257;52.540;13.416;2024-02-14T08:36:42;14.93;;;3.33;;
84140;SDS011;74257;52.540;13.416;2024-02-14T08:39:08;15.85;;;3.55;;
84140;SDS011;74257;52.540;13.416;2024-02-14T08:41:37;12.98;;;3.22;;
84140;SDS011;74257;52.540;13.416;2024-02-14T08:44:04;14.50;;;4.00;;
84140;SDS011;74257;52.540;13.416;2024-02-14T08:46:30;12.48;;;3.63;;
84140;SDS011;74257;52.540;13.416;2024-02-14T08:48:56;17.80;;;4.10;;
84140;SDS011;74257;52.540;13.416;2024-02-14T08:51:22;14.25;;;4.00;;
84140;SDS011;74257;52.540;13.416;2024-02-14T08:53:48;14.20;;;3.55;;
84140;SDS011;74257;52.540;13.416;2024-02-14T08:56:20;10.93;;;3.35;;
84140;SDS011;74257;52.540;13.416;2024-02-14T08:58:47;14.15;;;4.38;;
84140;SDS011;74257;52.540;13.416;2024-02-14T09:01:13;15.73;;;5.03;;
84140;SDS011;74257;52.540;13.416;2024-02-14T09:03:41;17.38;;;8.43;;
84140;SDS011;74257;52.540;13.416;2024-02-14T09:06:16;20.58;;;9.90;;
84140;SDS011;74257;52.540;13.416;2024-02-14T09:08:45;18.38;;;13.98;;
84140;SDS011;74257;52.540;13.416;2024-02-14T09:11:11;25.25;;;13.50;;
84140;SDS011;74257;52.540;13.416;2024-02-14T09:13:37;20.13;;;11.68;;
84140;SDS011;74257;52.540;13.416;2024-02-14T09:16:06;23.90;;;12.23;;
84140;SDS011;74257;52.540;13.416;2024-02-14T09:18:33;23.55;;;12.30;;
84140;SDS011;74257;52.540;13.416;2024-02-14T09:20:59;21.27;;;12.13;;
84140;SDS011;74257;52.540;13.416;2024-02-14T09:23:26;25.55;;;12.60;;
84140;SDS011;74257;52.540;13.416;2024-02-14T09:25:53;24.60;;;12.13;;
84140;SDS011;74257;52.540;13.416;2024-02-14T09:28:19;23.90;;;12.48;;
84140;SDS011;74257;52.540;13.416;2024-02-14T09:30:45;20.88;;;10.98;;
84140;SDS011;74257;52.540;13.416;2024-02-14T09:33:11;23.67;;;10.75;;
84140;SDS011;74257;52.540;13.416;2024-02-14T09:35:37;19.17;;;11.38;;
84140;SDS011;74257;52.540;13.416;2024-02-14T09:38:04;20.83;;;10.27;;
84140;SDS011;74257;52.540;13.416;2024-02-14T09:40:30;19.73;;;11.27;;
84140;SDS011;74257;52.540;13.416;2024-02-14T09:42:56;17.85;;;11.20;;
84140;SDS011;74257;52.540;13.416;2024-02-14T09:45:27;14.73;;;9.55;;
84140;SDS011;74257;52.540;13.416;2024-02-14T09:47:53;17.85;;;10.85;;
84140;SDS011;74257;52.540;13.416;2024-02-14T09:50:20;17.17;;;9.57;;
84140;SDS011;74257;52.540;13.416;2024-02-14T09:52:47;23.80;;;10.75;;
84140;SDS011;74257;52.540;13.416;2024-02-14T09:55:14;18.52;;;9.07;;
84140;SDS011;74257;52.540;13.416;2024-02-14T09:57:40;18.35;;;9.27;;
84140;SDS011;74257;52.540;13.416;2024-02-14T10:00:10;22.23;;;9.25;;
84140;SDS011;74257;52.540;13.416;2024-02-14T10:02:39;18.90;;;9.43;;
84140;SDS011;74257;52.540;13.416;2024-02-14T10:05:06;15.48;;;8.05;;
84140;SDS011;74257;52.540;13.416;2024-02-14T10:07:39;16.08;;;7.47;;
84140;SDS011;74257;52.540;13.416;2024-02-14T10:10:09;16.60;;;8.23;;
84140;SDS011;74257;52.540;13.416;2024-02-14T10:12:36;21.60;;;8.40;;
84140;SDS011;74257;52.540;13.416;2024-02-14T10:15:02;13.05;;;7.22;;
84140;SDS011;74257;52.540;13.416;2024-02-14T10:17:29;19.02;;;7.45;;
84140;SDS011;74257;52.540;13.416;2024-02-14T10:19:58;16.15;;;7.80;;
84140;SDS011;74257;52.540;13.416;2024-02-14T10:22:36;20.95;;;7.50;;
84140;SDS011;74257;52.540;13.416;2024-02-14T10:25:03;17.95;;;6.90;;
84140;SDS011;74257;52.540;13.416;2024-02-14T10:27:30;15.68;;;7.40;;
84140;SDS011;74257;52.540;13.416;2024-02-14T10:29:58;44.28;;;9.32;;
84140;SDS011;74257;52.540;13.416;2024-02-14T10:32:24;29.13;;;7.47;;
84140;SDS011;74257;52.540;13.416;2024-02-14T10:34:51;12.05;;;4.97;;
84140;SDS011;74257;52.540;13.416;2024-02-14T10:37:17;18.63;;;4.43;;
84140;SDS011;74257;52.540;13.416;2024-02-14T10:39:46;27.23;;;4.70;;
84140;SDS011;74257;52.540;13.416;2024-02-14T10:42:17;20.08;;;5.10;;
84140;SDS011;74257;52.540;13.416;2024-02-14T10:44:44;14.65;;;4.45;;
84140;SDS011;74257;52.540;13.416;2024-02-14T10:47:13;14.13;;;4.53;;
84140;SDS011;74257;52.540;13.416;2024-02-14T10:49:44;11.18;;;3.90;;
84140;SDS011;74257;52.540;13.416;2024-02-14T10:52:13;15.20;;;4.03;;
84140;SDS011;74257;52.540;13.416;2024-02-14T10:54:43;14.30;;;4.30;;
84140;SDS011;74257;52.540;13.416;2024-02-14T10:57:17;12.73;;;4.10;;
84140;SDS011;74257;52.540;13.416;2024-02-14T10:59:46;15.43;;;4.30;;
84140;SDS011;74257;52.540;13.416;2024-02-14T11:02:14;15.00;;;4.85;;
84140;SDS011;74257;52.540;13.416;2024-02-14T11:04:40;9.63;;;3.90;;
84140;SDS011;74257;52.540;13.416;2024-02-14T11:07:08;13.07;;;4.40;;
84140;SDS011;74257;52.540;13.416;2024-02-14T11:09:38;11.63;;;3.88;;
84140;SDS011;74257;52.540;13.416;2024-02-14T11:12:08;18.10;;;4.30;;
84140;SDS011;74257;52.540;13.416;2024-02-14T11:14:37;13.10;;;4.50;;
84140;SDS011;74257;52.540;13.416;2024-02-14T11:17:10;11.10;;;3.88;;
84140;SDS011;74257;52.540;13.416;2024-02-14T11:19:38;13.20;;;4.15;;
84140;SDS011;74257;52.540;13.416;2024-02-14T11:22:18;10.23;;;4.05;;
84140;SDS011;74257;52.540;13.416;2024-02-14T11:24:45;9.77;;;3.60;;
84140;SDS011;74257;52.540;13.416;2024-02-14T11:27:11;11.18;;;3.47;;
84140;SDS011;74257;52.540;13.416;2024-02-14T11:29:38;15.40;;;3.63;;
84140;SDS011;74257;52.540;13.416;2024-02-14T11:32:05;9.93;;;3.70;;
84140;SDS011;74257;52.540;13.416;2024-02-14T11:34:34;9.57;;;3.60;;
84140;SDS011;74257;52.540;13.416;2024-02-14T11:37:00;9.20;;;3.80;;
84140;SDS011;74257;52.540;13.416;2024-02-14T11:39:26;7.35;;;3.63;;
84140;SDS011;74257;52.540;13.416;2024-02-14T11:41:52;10.95;;;3.88;;
84140;SDS011;74257;52.540;13.416;2024-02-14T11:44:21;10.82;;;3.38;;
84140;SDS011;74257;52.540;13.416;2024-02-14T11:46:51;9.70;;;3.88;;
84140;SDS011;74257;52.540;13.416;2024-02-14T11:49:17;9.70;;;3.63;;
84140;SDS011;74257;52.540;13.416;2024-02-14T11:51:43;6.63;;;3.28;;
84140;SDS011;74257;52.540;13.416;2024-02-14T11:54:09;7.50;;;3.83;;
84140;SDS011;74257;52.540;13.416;2024-02-14T11:56:35;7.57;;;3.15;;
84140;SDS011;74257;52.540;13.416;2024-02-14T11:59:03;8.38;;;3.67;;
84140;SDS011;74257;52.540;13.416;2024-02-14T12:01:30;10.98;;;3.65;;
84140;SDS011;74257;52.540;13.416;2024-02-14T12:03:58;10.43;;;3.53;;
84140;SDS011;74257;52.540;13.416;2024-02-14T12:06:26;8.25;;;3.10;;
84140;SDS011;74257;52.540;13.416;2024-02-14T12:08:54;8.52;;;3.30;;
84140;SDS011;74257;52.540;13.416;2024-02-14T12:11:21;6.53;;;3.08;;
84140;SDS011;74257;52.540;13.416;2024-02-14T12:13:50;4.85;;;3.13;;
84140;SDS011;74257;52.540;13.416;2024-02-14T12:16:19;6.05;;;2.88;;
84140;SDS011;74257;52.540;13.416;2024-02-14T12:18:46;6.40;;;2.78;;
84140;SDS011;74257;52.540;13.416;2024-02-14T12:21:11;7.45;;;2.55;;
84140;SDS011;74257;52.540;13.416;2024-02-14T12:23:38;6.55;;;2.90;;
84140;SDS011;74257;52.540;13.416;2024-02-14T12:26:04;8.32;;;2.95;;
84140;SDS011;74257;52.540;13.416;2024-02-14T12:28:30;9.40;;;3.30;;
84140;SDS011;74257;52.540;13.416;2024-02-14T12:30:57;7.55;;;3.15;;
84140;SDS011;74257;52.540;13.416;2024-02-14T12:33:24;5.38;;;2.88;;
84140;SDS011;74257;52.540;13.416;2024-02-14T12:35:51;8.18;;;3.13;;
84140;SDS011;74257;52.540;13.416;2024-02-14T12:38:18;4.85;;;2.80;;
84140;SDS011;74257;52.540;13.416;2024-02-14T12:40:45;4.93;;;2.60;;
84140;SDS011;74257;52.540;13.416;2024-02-14T12:43:12;5.03;;;2.72;;
84140;SDS011;74257;52.540;13.416;2024-02-14T12:45:39;8.63;;;3.03;;
84140;SDS011;74257;52.540;13.416;2024-02-14T12:48:06;6.05;;;2.50;;
84140;SDS011;74257;52.540;13.416;2024-02-14T12:50:37;9.15;;;2.72;;
84140;SDS011;74257;52.540;13.416;2024-02-14T12:53:06;7.20;;;3.63;;
84140;SDS011;74257;52.540;13.416;2024-02-14T12:55:33;11.00;;;2.92;;
84140;SDS011;74257;52.540;13.416;2024-02-14T12:57:59;5.28;;;2.63;;
84140;SDS011;74257;52.540;13.416;2024-02-14T13:00:25;7.72;;;2.55;;
84140;SDS011;74257;52.540;13.416;2024-02-14T13:02:52;5.72;;;2.50;;
84140;SDS011;74257;52.540;13.416;2024-02-14T13:05:18;6.35;;;2.85;;
84140;SDS011;74257;52.540;13.416;2024-02-14T13:07:44;9.73;;;2.58;;
84140;SDS011;74257;52.540;13.416;2024-02-14T13:10:11;5.97;;;2.60;;
84140;SDS011;74257;52.540;13.416;2024-02-14T13:12:37;10.55;;;3.13;;
84140;SDS011;74257;52.540;13.416;2024-02-14T13:15:04;7.60;;;2.78;;
84140;SDS011;74257;52.540;13.416;2024-02-14T13:17:31;7.00;;;2.70;;
84140;SDS011;74257;52.540;13.416;2024-02-14T13:19:56;16.65;;;3.42;;
84140;SDS011;74257;52.540;13.416;2024-02-14T13:22:27;13.07;;;3.35;;
84140;SDS011;74257;52.540;13.416;2024-02-14T13:24:53;10.15;;;3.47;;
84140;SDS011;74257;52.540;13.416;2024-02-14T13:27:19;10.75;;;2.97;;
84140;SDS011;74257;52.540;13.416;2024-02-14T13:29:48;10.27;;;3.03;;
84140;SDS011;74257;52.540;13.416;2024-02-14T13:32:15;9.98;;;2.92;;
84140;SDS011;74257;52.540;13.416;2024-02-14T13:34:40;13.38;;;3.08;;
84140;SDS011;74257;52.540;13.416;2024-02-14T13:37:06;11.48;;;3.38;;
84140;SDS011;74257;52.540;13.416;2024-02-14T13:39:34;9.98;;;3.15;;
84140;SDS011;74257;52.540;13.416;2024-02-14T13:42:00;19.33;;;3.25;;
84140;SDS011;74257;52.540;13.416;2024-02-14T13:44:26;13.90;;;3.90;;
84140;SDS011;74257;52.540;13.416;2024-02-14T13:46:53;16.88;;;3.95;;
84140;SDS011;74257;52.540;13.416;2024-02-14T13:49:19;15.02;;;3.88;;
84140;SDS011;74257;52.540;13.416;2024-02-14T13:51:48;16.63;;;4.88;;
84140;SDS011;74257;52.540;13.416;2024-02-14T13:54:18;16.83;;;4.20;;
84140;SDS011;74257;52.540;13.416;2024-02-14T13:56:44;10.98;;;3.60;;
84140;SDS011;74257;52.540;13.416;2024-02-14T13:59:11;14.43;;;3.80;;
84140;SDS011;74257;52.540;13.416;2024-02-14T14:01:37;11.10;;;3.67;;
84140;SDS011;74257;52.540;13.416;2024-02-14T14:04:03;13.15;;;3.67;;
84140;SDS011;74257;52.540;13.416;2024-02-14T14:06:29;9.65;;;3.50;;
84140;SDS011;74257;52.540;13.416;2024-02-14T14:08:55;11.30;;;3.55;;
84140;SDS011;74257;52.540;13.416;2024-02-14T14:11:21;12.23;;;3.13;;
84140;SDS011;74257;52.540;13.416;2024-02-14T14:13:47;12.05;;;3.60;;
84140;SDS011;74257;52.540;13.416;2024-02-14T14:16:13;10.32;;;4.00;;
84140;SDS011;74257;52.540;13.416;2024-02-14T14:18:39;12.80;;;3.42;;
84140;SDS011;74257;52.540;13.416;2024-02-14T14:21:05;10.20;;;3.70;;
84140;SDS011;74257;52.540;13.416;2024-02-14T14:23:31;9.52;;;3.33;;
84140;SDS011;74257;52.540;13.416;2024-02-14T14:25:58;7.97;;;3.10;;
84140;SDS011;74257;52.540;13.416;2024-02-14T14:28:24;9.07;;;3.17;;